Time;durP1;ratioP1;P1;durP2;ratioP2;P2;SDS_P1;SDS_P2;PMS_P1;PMS_P2;Temp;Humidity;BMP_temperature;BMP_pressure;BME280_temperature;BME280_humidity;BME280_pressure;Samples;Min_cycle;Max_cycle;Signal;HPM_P1;HPM_P2
2022/04/03 00:01:26;;;;;;;16.55;9.57;;;-1.90;99.90;;;;;;5114034;28;20016;-75
2022/04/03 00:03:52;;;;;;;21.60;9.05;;;-2.00;99.90;;;;;;5113861;28;20019;-75
2022/04/03 00:06:18;;;;;;;30.23;13.00;;;-2.00;99.90;;;;;;5113839;28;20031;-75
2022/04/03 00:08:44;;;;;;;25.73;10.82;;;-2.00;99.90;;;;;;5115154;28;20023;-76
2022/04/03 00:11:10;;;;;;;20.58;9.93;;;-2.00;99.90;;;;;;5113940;28;20032;-75
2022/04/03 00:13:36;;;;;;;14.98;8.88;;;-2.00;99.90;;;;;;5113921;28;20067;-75
2022/04/03 00:16:03;;;;;;;23.08;10.48;;;-2.00;99.90;;;;;;5114965;28;20073;-75
2022/04/03 00:18:29;;;;;;;14.05;8.98;;;-2.00;99.90;;;;;;5113759;28;20028;-75
2022/04/03 00:20:55;;;;;;;16.40;10.07;;;-2.00;99.90;;;;;;5114902;28;20031;-74
2022/04/03 00:23:23;;;;;;;17.45;8.82;;;-2.00;99.90;;;;;;5114897;28;20497;-74
2022/04/03 00:25:50;;;;;;;14.45;9.90;;;-2.10;99.90;;;;;;5114817;28;20042;-74
2022/04/03 00:28:15;;;;;;;17.95;10.65;;;-2.10;99.90;;;;;;5113493;28;20016;-75
2022/04/03 00:30:42;;;;;;;18.65;10.05;;;-2.10;99.90;;;;;;5113520;28;20081;-75
2022/04/03 00:33:08;;;;;;;15.23;9.32;;;-2.10;99.90;;;;;;5114586;28;20549;-75
2022/04/03 00:35:34;;;;;;;16.65;9.30;;;-2.10;99.90;;;;;;5113954;28;20047;-75
2022/04/03 00:38:00;;;;;;;20.48;11.27;;;-2.10;99.90;;;;;;5113120;28;20472;-75
2022/04/03 00:40:26;;;;;;;24.92;11.50;;;-2.10;99.90;;;;;;5114533;28;20054;-75
2022/04/03 00:42:52;;;;;;;20.58;12.23;;;-2.20;99.90;;;;;;5113155;28;20019;-75
2022/04/03 00:45:19;;;;;;;22.52;10.60;;;-2.10;99.90;;;;;;5113176;28;20540;-75
2022/04/03 00:47:45;;;;;;;19.75;11.38;;;-2.20;99.90;;;;;;5113128;28;20026;-75
2022/04/03 00:50:11;;;;;;;16.08;9.15;;;-2.20;99.90;;;;;;5114474;28;20023;-74
2022/04/03 00:52:37;;;;;;;17.70;9.88;;;-2.20;99.90;;;;;;5114321;28;20073;-74
2022/04/03 00:55:04;;;;;;;19.77;9.20;;;-2.20;99.90;;;;;;5114326;27;20067;-75
2022/04/03 00:57:29;;;;;;;20.83;9.93;;;-2.30;99.90;;;;;;5114362;28;20055;-74
2022/04/03 00:59:57;;;;;;;15.95;8.77;;;-2.30;99.90;;;;;;5114090;28;20024;-75
2022/04/03 01:02:23;;;;;;;14.35;8.60;;;-2.30;99.90;;;;;;5112818;28;20023;-75
2022/04/03 01:04:48;;;;;;;18.33;8.85;;;-2.40;99.90;;;;;;5112788;28;20030;-74
2022/04/03 01:07:14;;;;;;;13.35;8.13;;;-2.30;99.90;;;;;;5112974;28;20015;-75
2022/04/03 01:09:41;;;;;;;16.88;10.38;;;-2.40;99.90;;;;;;5113959;27;20016;-75
2022/04/03 01:12:06;;;;;;;17.35;9.88;;;-2.40;99.90;;;;;;5113876;28;20024;-75
2022/04/03 01:14:34;;;;;;;17.70;8.68;;;-2.40;99.90;;;;;;5113865;28;20028;-75
2022/04/03 01:17:00;;;;;;;19.13;9.13;;;-2.40;99.90;;;;;;5112710;28;20047;-74
2022/04/03 01:19:26;;;;;;;12.30;7.45;;;-2.40;99.90;;;;;;5112608;28;20358;-74
2022/04/03 01:21:51;;;;;;;16.33;7.80;;;-2.40;99.90;;;;;;5113897;28;20026;-74
2022/04/03 01:24:18;;;;;;;15.50;8.55;;;-2.40;99.90;;;;;;5112963;28;20388;-75
2022/04/03 01:26:44;;;;;;;14.70;7.13;;;-2.40;99.90;;;;;;5114046;28;20016;-74
2022/04/03 01:29:10;;;;;;;14.07;8.38;;;-2.40;99.90;;;;;;5113786;28;20035;-75
2022/04/03 01:31:35;;;;;;;16.08;8.85;;;-2.40;99.90;;;;;;5113812;28;20035;-75
2022/04/03 01:34:01;;;;;;;15.18;9.25;;;-2.40;99.90;;;;;;5113343;28;20063;-75
2022/04/03 01:36:26;;;;;;;12.60;8.77;;;-2.40;99.90;;;;;;5113804;28;20039;-75
2022/04/03 01:38:52;;;;;;;13.40;7.38;;;-2.50;99.90;;;;;;5112417;28;20024;-75
2022/04/03 01:41:18;;;;;;;13.00;7.70;;;-2.50;99.90;;;;;;5113699;28;20028;-74
2022/04/03 01:43:43;;;;;;;13.43;7.88;;;-2.50;99.90;;;;;;5112454;28;20362;-74
2022/04/03 01:46:09;;;;;;;21.48;10.13;;;-2.50;99.90;;;;;;5111932;28;20224;-74
2022/04/03 01:48:34;;;;;;;13.07;7.85;;;-2.50;99.90;;;;;;5116746;28;20024;-75
2022/04/03 01:51:00;;;;;;;16.15;8.27;;;-2.50;99.90;;;;;;5118223;28;20030;-74
2022/04/03 01:53:26;;;;;;;17.15;8.52;;;-2.50;99.90;;;;;;5117604;28;20465;-76
2022/04/03 01:56:05;;;;;;;13.45;8.13;;;-2.50;99.90;;;;;;5117568;28;20499;-75
2022/04/03 01:58:32;;;;;;;13.88;8.10;;;-2.60;99.90;;;;;;5117992;28;20431;-73
2022/04/03 02:00:58;;;;;;;11.50;7.55;;;-2.60;99.90;;;;;;5117636;28;20477;-75
2022/04/03 02:03:23;;;;;;;16.10;8.50;;;-2.60;99.90;;;;;;5117633;28;20032;-75
2022/04/03 02:05:49;;;;;;;13.40;7.95;;;-2.70;99.90;;;;;;5117586;28;20453;-74
2022/04/03 02:08:15;;;;;;;14.35;8.30;;;-2.70;99.90;;;;;;5116224;28;20016;-75
2022/04/03 02:10:41;;;;;;;18.35;9.10;;;-2.60;99.90;;;;;;5116215;28;20471;-75
2022/04/03 02:13:07;;;;;;;14.05;8.30;;;-2.70;99.90;;;;;;5117397;28;20026;-74
2022/04/03 02:15:33;;;;;;;14.65;7.95;;;-2.70;99.90;;;;;;5117384;28;20090;-75
2022/04/03 02:17:59;;;;;;;9.02;7.38;;;-2.70;99.90;;;;;;5116161;28;20023;-75
2022/04/03 02:20:24;;;;;;;13.57;7.78;;;-2.80;99.90;;;;;;5117262;28;20031;-75
2022/04/03 02:22:50;;;;;;;18.88;9.18;;;-2.80;99.90;;;;;;5115936;28;20020;-75
2022/04/03 02:25:15;;;;;;;14.55;9.25;;;-2.80;99.90;;;;;;5117231;27;20020;-75
2022/04/03 02:27:45;;;;;;;16.45;9.93;;;-2.80;99.90;;;;;;5115843;28;20031;-74
2022/04/03 02:30:12;;;;;;;14.45;9.27;;;-2.90;99.90;;;;;;5115891;28;20024;-74
2022/04/03 02:32:38;;;;;;;16.50;9.65;;;-2.90;99.90;;;;;;5116977;28;20103;-75
2022/04/03 02:35:06;;;;;;;18.38;8.90;;;-3.00;99.90;;;;;;5115520;28;20240;-74
2022/04/03 02:37:33;;;;;;;17.85;9.70;;;-3.00;99.90;;;;;;5116975;28;20129;-75
2022/04/03 02:39:59;;;;;;;16.60;8.95;;;-3.00;99.90;;;;;;5116832;28;20028;-73
2022/04/03 02:42:25;;;;;;;18.38;9.77;;;-3.00;99.90;;;;;;5115621;28;20023;-75
2022/04/03 02:44:51;;;;;;;22.55;10.70;;;-3.00;99.90;;;;;;5116771;28;20031;-74
2022/04/03 02:47:17;;;;;;;20.45;9.82;;;-3.00;99.90;;;;;;5115484;28;20011;-75
2022/04/03 02:49:43;;;;;;;18.35;9.30;;;-3.10;99.90;;;;;;5116711;28;20037;-75
2022/04/03 02:52:09;;;;;;;15.63;10.05;;;-3.10;99.90;;;;;;5116793;28;20016;-75
2022/04/03 02:54:34;;;;;;;16.95;9.45;;;-3.10;99.90;;;;;;5116461;28;20050;-75
2022/04/03 02:57:01;;;;;;;21.27;9.68;;;-3.10;99.90;;;;;;5115351;28;20442;-75
2022/04/03 02:59:26;;;;;;;20.52;10.85;;;-3.10;99.90;;;;;;5114464;28;20554;-75
2022/04/03 03:01:52;;;;;;;17.48;8.38;;;-3.20;99.90;;;;;;5116495;28;20023;-75
2022/04/03 03:04:17;;;;;;;15.70;9.45;;;-3.20;99.90;;;;;;5114968;28;20030;-74
2022/04/03 03:06:43;;;;;;;16.15;9.93;;;-3.20;99.90;;;;;;5116352;28;20023;-75
2022/04/03 03:09:09;;;;;;;15.05;8.60;;;-3.20;99.90;;;;;;5114939;28;20036;-74
2022/04/03 03:11:34;;;;;;;13.52;9.13;;;-3.20;99.90;;;;;;5114947;28;20051;-74
2022/04/03 03:14:00;;;;;;;16.85;9.55;;;-3.20;99.90;;;;;;5114949;28;20551;-74
2022/04/03 03:16:25;;;;;;;17.55;9.55;;;-3.30;99.90;;;;;;5115907;28;20039;-75
2022/04/03 03:18:51;;;;;;;16.45;9.20;;;-3.30;99.90;;;;;;5114799;28;20024;-76
2022/04/03 03:21:16;;;;;;;18.23;8.82;;;-3.20;99.90;;;;;;5116034;28;20110;-75
2022/04/03 03:23:42;;;;;;;12.82;8.38;;;-3.20;99.90;;;;;;5114968;28;20036;-74
2022/04/03 03:26:08;;;;;;;16.90;8.75;;;-3.20;99.90;;;;;;5116029;28;20019;-73
2022/04/03 03:28:34;;;;;;;15.40;9.60;;;-3.30;99.90;;;;;;5114652;28;20106;-74
2022/04/03 03:31:00;;;;;;;13.70;8.57;;;-3.30;99.90;;;;;;5115903;28;20059;-74
2022/04/03 03:33:26;;;;;;;18.17;8.13;;;-3.30;99.90;;;;;;5114679;28;20022;-75
2022/04/03 03:35:51;;;;;;;16.95;9.60;;;-3.30;99.90;;;;;;5114342;28;20054;-73
2022/04/03 03:38:17;;;;;;;15.00;8.38;;;-3.40;99.90;;;;;;5115715;28;20069;-75
2022/04/03 03:40:44;;;;;;;14.27;8.43;;;-3.40;99.90;;;;;;5114443;28;20397;-74
2022/04/03 03:43:09;;;;;;;15.73;8.52;;;-3.50;99.90;;;;;;5115746;28;20016;-75
2022/04/03 03:45:35;;;;;;;14.55;8.48;;;-3.50;99.90;;;;;;5114194;28;20043;-74
2022/04/03 03:48:01;;;;;;;14.70;8.60;;;-3.50;99.90;;;;;;5115643;28;20024;-74
2022/04/03 03:50:26;;;;;;;15.57;8.35;;;-3.50;99.90;;;;;;5115519;28;20373;-74
2022/04/03 03:52:52;;;;;;;14.18;8.00;;;-3.60;99.90;;;;;;5115542;28;20030;-75
2022/04/03 03:55:17;;;;;;;16.08;8.35;;;-3.60;99.90;;;;;;5114037;28;20042;-75
2022/04/03 03:57:44;;;;;;;11.52;7.35;;;-3.60;99.90;;;;;;5115354;27;20016;-74
2022/04/03 04:00:11;;;;;;;16.33;9.15;;;-3.70;99.90;;;;;;5114451;28;20164;-75
2022/04/03 04:02:37;;;;;;;16.02;7.70;;;-3.70;99.90;;;;;;5101070;28;20039;-74
2022/04/03 04:05:03;;;;;;;16.27;7.57;;;-3.70;99.90;;;;;;5094868;28;20153;-74
2022/04/03 04:07:46;;;;;;;14.65;7.43;;;-3.70;99.90;;;;;;5094830;28;20016;-74
2022/04/03 04:10:13;;;;;;;12.45;7.20;;;-3.70;99.90;;;;;;5094744;28;20058;-75
2022/04/03 04:12:43;;;;;;;23.90;9.15;;;-3.80;99.90;;;;;;5094654;28;20028;-74
2022/04/03 04:15:10;;;;;;;10.23;6.63;;;-3.80;99.90;;;;;;5093307;28;20073;-71
2022/04/03 04:17:38;;;;;;;14.25;8.05;;;-3.80;99.90;;;;;;5093383;28;20039;-72
2022/04/03 04:20:09;;;;;;;15.82;7.78;;;-3.80;99.90;;;;;;5094690;28;20020;-71
2022/04/03 04:22:35;;;;;;;13.20;7.38;;;-3.80;99.90;;;;;;5094362;28;20059;-72
2022/04/03 04:25:01;;;;;;;13.00;7.03;;;-3.80;99.90;;;;;;5093212;28;20115;-72
2022/04/03 04:27:27;;;;;;;12.38;8.25;;;-3.80;99.90;;;;;;5094394;28;20022;-72
2022/04/03 04:29:52;;;;;;;10.98;7.30;;;-3.80;99.90;;;;;;5094410;28;20095;-72
2022/04/03 04:32:21;;;;;;;15.30;7.72;;;-3.90;99.90;;;;;;5094278;28;20031;-71
2022/04/03 04:34:50;;;;;;;9.23;7.00;;;-3.90;99.90;;;;;;5093942;28;20408;-72
2022/04/03 04:37:16;;;;;;;14.40;8.00;;;-3.90;99.90;;;;;;5094149;28;20104;-71
2022/04/03 04:39:43;;;;;;;13.30;6.72;;;-3.90;99.90;;;;;;5094229;28;20415;-71
2022/04/03 04:42:08;;;;;;;15.00;7.78;;;-3.90;99.90;;;;;;5092830;28;20492;-72
2022/04/03 04:44:34;;;;;;;15.52;6.80;;;-3.90;99.90;;;;;;5092817;28;20020;-73
2022/04/03 04:47:00;;;;;;;13.38;7.40;;;-3.90;99.90;;;;;;5094113;28;20052;-73
2022/04/03 04:49:25;;;;;;;11.10;8.18;;;-3.90;99.90;;;;;;5092819;28;20042;-72
2022/04/03 04:51:51;;;;;;;13.32;8.00;;;-3.80;99.90;;;;;;5092706;28;20477;-71
2022/04/03 04:54:16;;;;;;;12.85;7.15;;;-3.80;99.90;;;;;;5103115;28;20031;-73
2022/04/03 04:56:42;;;;;;;13.00;8.15;;;-3.80;99.90;;;;;;5114168;28;20028;-72
2022/04/03 04:59:08;;;;;;;13.73;8.30;;;-3.80;99.90;;;;;;5112990;28;20032;-72
2022/04/03 05:01:33;;;;;;;16.55;8.07;;;-3.70;99.90;;;;;;5112921;28;20042;-72
2022/04/03 05:03:59;;;;;;;14.05;8.32;;;-3.70;99.90;;;;;;5114086;28;20164;-72
2022/04/03 05:06:26;;;;;;;15.60;8.07;;;-3.70;99.90;;;;;;5110327;28;20024;-75
2022/04/03 05:08:54;;;;;;;13.40;7.65;;;-3.60;99.90;;;;;;5102185;28;20020;-74
2022/04/03 05:11:20;;;;;;;14.40;7.30;;;-3.60;99.90;;;;;;5105599;28;20038;-71
2022/04/03 05:13:46;;;;;;;13.93;7.53;;;-3.70;99.90;;;;;;5093480;28;20021;-73
2022/04/03 05:16:13;;;;;;;11.35;6.93;;;-3.70;99.90;;;;;;5093318;28;20032;-71
2022/04/03 05:18:39;;;;;;;24.63;8.40;;;-3.60;99.90;;;;;;5093437;28;20469;-72
2022/04/03 05:21:07;;;;;;;12.05;6.88;;;-3.50;99.90;;;;;;5093383;28;20039;-73
2022/04/03 05:23:32;;;;;;;12.43;7.53;;;-3.60;99.90;;;;;;5092999;28;20389;-71
2022/04/03 05:25:58;;;;;;;13.00;6.85;;;-3.50;99.90;;;;;;5093318;28;20031;-72
2022/04/03 05:28:26;;;;;;;12.20;7.07;;;-3.50;99.90;;;;;;5093262;28;20031;-72
2022/04/03 05:30:52;;;;;;;16.40;8.68;;;-3.40;99.90;;;;;;5093169;28;20069;-71
2022/04/03 05:33:18;;;;;;;12.93;7.45;;;-3.40;99.90;;;;;;5092002;28;20031;-72
2022/04/03 05:35:43;;;;;;;16.90;8.80;;;-3.30;99.90;;;;;;5091705;28;20056;-72
2022/04/03 05:38:09;;;;;;;14.43;7.38;;;-3.20;99.90;;;;;;5093212;28;20496;-72
2022/04/03 05:40:35;;;;;;;14.40;7.88;;;-3.20;99.90;;;;;;5093108;28;20024;-74
2022/04/03 05:43:01;;;;;;;12.50;7.55;;;-3.10;99.90;;;;;;5105390;28;20124;-73
2022/04/03 05:45:27;;;;;;;15.50;8.73;;;-3.00;99.90;;;;;;5113214;28;20032;-75
2022/04/03 05:47:53;;;;;;;15.60;8.38;;;-2.90;99.90;;;;;;5107221;28;20016;-75
2022/04/03 05:50:19;;;;;;;11.40;8.20;;;-2.80;99.90;;;;;;5099272;28;20016;-74
2022/04/03 05:52:48;;;;;;;13.23;7.82;;;-2.80;99.90;;;;;;5102214;28;20035;-75
2022/04/03 05:55:18;;;;;;;17.33;8.18;;;-2.90;99.90;;;;;;5097849;28;20035;-73
2022/04/03 05:57:48;;;;;;;12.85;7.57;;;-2.60;99.90;;;;;;5102002;28;20492;-74
2022/04/03 06:00:15;;;;;;;18.80;9.05;;;-2.60;99.90;;;;;;5101022;28;20007;-74
2022/04/03 06:02:55;;;;;;;16.13;8.95;;;-2.60;99.90;;;;;;5100667;28;20630;-75
2022/04/03 06:05:23;;;;;;;13.60;8.02;;;-2.40;99.90;;;;;;5098521;28;20024;-75
2022/04/03 06:07:49;;;;;;;11.73;8.00;;;-2.30;99.90;;;;;;5099234;28;20515;-75
2022/04/03 06:10:16;;;;;;;14.95;9.05;;;-2.40;99.90;;;;;;5103482;28;20024;-75
2022/04/03 06:12:58;;;;;;;19.50;12.65;;;-2.20;99.90;;;;;;5113110;28;20103;-75
2022/04/03 06:15:25;;;;;;;20.95;12.50;;;-2.10;99.90;;;;;;5111874;28;20035;-74
2022/04/03 06:17:51;;;;;;;16.83;8.77;;;-1.90;99.90;;;;;;5107098;28;20028;-75
2022/04/03 06:20:18;;;;;;;13.25;8.55;;;-2.10;99.90;;;;;;5101683;28;20024;-73
2022/04/03 06:22:44;;;;;;;13.68;7.32;;;-1.90;99.90;;;;;;5102877;28;20054;-73
2022/04/03 06:25:09;;;;;;;14.85;8.20;;;-1.80;99.90;;;;;;5093317;28;20021;-75
2022/04/03 06:27:35;;;;;;;13.27;7.90;;;-2.00;99.90;;;;;;5093019;28;20024;-74
2022/04/03 06:30:01;;;;;;;12.15;7.65;;;-2.00;99.90;;;;;;5091612;28;20107;-74
2022/04/03 06:32:27;;;;;;;12.07;7.60;;;-1.80;99.90;;;;;;5096239;28;20127;-74
2022/04/03 06:34:52;;;;;;;12.93;8.38;;;-1.90;99.90;;;;;;5104540;28;20112;-73
2022/04/03 06:37:18;;;;;;;15.88;8.35;;;-2.10;99.90;;;;;;5104903;28;20023;-74
2022/04/03 06:39:43;;;;;;;17.95;9.05;;;-1.90;99.90;;;;;;5105791;28;20016;-73
2022/04/03 06:42:09;;;;;;;15.90;7.78;;;-1.90;99.90;;;;;;5106379;28;20051;-74
2022/04/03 06:44:35;;;;;;;15.45;7.88;;;-1.80;99.90;;;;;;5105741;28;20016;-74
2022/04/03 06:47:01;;;;;;;16.90;8.07;;;-1.70;99.90;;;;;;5103811;28;20051;-74
2022/04/03 06:49:30;;;;;;;17.58;8.73;;;-1.60;99.90;;;;;;5105028;28;20020;-74
2022/04/03 06:51:55;;;;;;;11.70;7.55;;;-1.60;99.90;;;;;;5106698;28;20012;-74
2022/04/03 06:54:21;;;;;;;10.32;7.35;;;-1.50;99.90;;;;;;5095736;28;20079;-74
2022/04/03 06:56:46;;;;;;;19.20;8.18;;;-1.50;99.60;;;;;;5101242;28;20032;-74
2022/04/03 06:59:12;;;;;;;13.88;8.25;;;-1.10;97.70;;;;;;5105020;28;20107;-74
2022/04/03 07:01:37;;;;;;;17.70;9.98;;;-1.10;94.90;;;;;;5106296;28;20024;-74
2022/04/03 07:04:04;;;;;;;18.70;7.68;;;-0.90;92.10;;;;;;5104457;28;20020;-74
2022/04/03 07:06:29;;;;;;;27.92;13.57;;;-0.60;90.60;;;;;;5107174;28;20011;-75
2022/04/03 07:08:55;;;;;;;37.63;21.30;;;-0.80;91.00;;;;;;5114998;28;20032;-74
2022/04/03 07:11:20;;;;;;;19.98;12.80;;;-0.50;89.50;;;;;;5115748;28;20102;-74
2022/04/03 07:13:46;;;;;;;14.73;8.40;;;-0.40;89.70;;;;;;5114757;28;20051;-76
2022/04/03 07:16:11;;;;;;;12.50;8.35;;;-0.60;88.30;;;;;;5115898;28;20228;-74
2022/04/03 07:18:37;;;;;;;16.70;9.43;;;-0.60;86.10;;;;;;5114590;28;20544;-75
2022/04/03 07:21:04;;;;;;;15.35;9.25;;;-0.80;86.40;;;;;;5115599;28;20351;-75
2022/04/03 07:23:29;;;;;;;14.90;8.45;;;-0.50;86.90;;;;;;5115858;28;20022;-76
2022/04/03 07:25:55;;;;;;;13.05;8.18;;;-0.30;86.60;;;;;;5114525;28;20020;-75
2022/04/03 07:28:20;;;;;;;26.30;9.43;;;-0.50;85.00;;;;;;5107028;28;20028;-74
2022/04/03 07:30:46;;;;;;;15.18;7.30;;;-0.50;85.20;;;;;;5104419;28;20473;-74
2022/04/03 07:33:11;;;;;;;18.10;9.07;;;-0.30;85.20;;;;;;5104716;28;20400;-75
2022/04/03 07:35:37;;;;;;;18.02;8.35;;;-0.40;84.70;;;;;;5106468;28;20083;-74
2022/04/03 07:38:04;;;;;;;16.00;9.10;;;-0.10;84.00;;;;;;5094081;28;20093;-75
2022/04/03 07:40:30;;;;;;;12.82;7.90;;;-0.10;82.20;;;;;;5109171;28;20023;-74
2022/04/03 07:42:56;;;;;;;18.30;7.60;;;0.00;79.10;;;;;;5114046;28;20385;-75
2022/04/03 07:45:22;;;;;;;17.13;8.70;;;0.00;76.90;;;;;;5113527;28;20484;-74
2022/04/03 07:47:50;;;;;;;14.77;7.45;;;-0.30;80.00;;;;;;5115291;28;20028;-76
2022/04/03 07:50:18;;;;;;;9.10;6.43;;;0.10;79.80;;;;;;5113821;28;20388;-75
2022/04/03 07:52:45;;;;;;;12.50;6.85;;;-0.10;76.30;;;;;;5113937;28;20387;-75
2022/04/03 07:55:12;;;;;;;14.82;7.15;;;0.00;76.40;;;;;;5113687;28;20032;-76
2022/04/03 07:57:39;;;;;;;8.70;6.47;;;-0.10;76.20;;;;;;5115118;28;20123;-76
2022/04/03 08:00:07;;;;;;;12.07;5.90;;;-0.10;74.80;;;;;;5113730;28;20039;-75
2022/04/03 08:02:34;;;;;;;12.75;7.63;;;-0.20;74.90;;;;;;5113452;28;20011;-75
2022/04/03 08:04:59;;;;;;;9.50;6.70;;;0.00;74.80;;;;;;5114901;28;20028;-76
2022/04/03 08:07:46;;;;;;;8.57;6.45;;;0.20;72.60;;;;;;5114856;28;20430;-76
2022/04/03 08:10:14;;;;;;;9.65;6.75;;;0.40;72.30;;;;;;5114910;28;20024;-75
2022/04/03 08:12:42;;;;;;;11.10;6.40;;;0.40;70.70;;;;;;5113266;28;20016;-75
2022/04/03 08:15:10;;;;;;;7.20;4.95;;;0.40;70.80;;;;;;5104917;28;20043;-75
2022/04/03 08:17:38;;;;;;;13.77;8.00;;;0.40;68.90;;;;;;5102859;28;20028;-77
2022/04/03 08:20:05;;;;;;;17.98;9.30;;;0.40;67.70;;;;;;5113396;28;20027;-74
2022/04/03 08:22:31;;;;;;;9.07;6.07;;;0.50;71.30;;;;;;5113191;28;20030;-75
2022/04/03 08:24:56;;;;;;;7.90;5.20;;;0.40;68.10;;;;;;5114546;28;20381;-76
2022/04/03 08:27:22;;;;;;;8.95;4.90;;;0.60;67.00;;;;;;5114484;28;20477;-75
2022/04/03 08:29:49;;;;;;;15.80;7.03;;;0.50;66.90;;;;;;5114525;27;20024;-76
2022/04/03 08:32:14;;;;;;;12.88;6.55;;;0.50;66.40;;;;;;5102888;28;20020;-76
2022/04/03 08:34:40;;;;;;;10.13;5.93;;;0.70;67.00;;;;;;5092336;28;20048;-77
2022/04/03 08:37:06;;;;;;;8.80;6.57;;;0.90;66.40;;;;;;5093806;28;20074;-76
2022/04/03 08:39:33;;;;;;;7.95;4.32;;;1.00;66.00;;;;;;5092442;28;20389;-75
2022/04/03 08:41:59;;;;;;;10.70;7.00;;;0.90;65.30;;;;;;5093635;28;20028;-75
2022/04/03 08:44:25;;;;;;;12.23;6.80;;;1.10;65.30;;;;;;5093853;28;20024;-75
2022/04/03 08:46:52;;;;;;;5.50;4.95;;;1.40;65.40;;;;;;5092480;28;20074;-74
2022/04/03 08:49:19;;;;;;;12.15;7.07;;;1.20;63.70;;;;;;5093664;28;20020;-76
2022/04/03 08:51:47;;;;;;;17.08;7.13;;;1.00;63.10;;;;;;5093556;28;20103;-75
2022/04/03 08:54:17;;;;;;;14.70;6.85;;;0.50;64.70;;;;;;5093715;28;20028;-76
2022/04/03 08:56:42;;;;;;;13.38;7.53;;;0.50;65.40;;;;;;5093058;28;20485;-76
2022/04/03 08:59:08;;;;;;;27.33;10.30;;;0.60;67.00;;;;;;5093541;28;20055;-76
2022/04/03 09:01:34;;;;;;;19.60;7.72;;;0.80;66.70;;;;;;5091983;28;20030;-76
2022/04/03 09:04:00;;;;;;;26.65;8.88;;;0.80;65.80;;;;;;5092184;28;20481;-76
2022/04/03 09:06:25;;;;;;;8.85;5.15;;;0.70;65.80;;;;;;5092277;28;20119;-76
2022/04/03 09:08:51;;;;;;;9.90;6.07;;;0.80;66.00;;;;;;5093429;28;20048;-77
2022/04/03 09:11:18;;;;;;;10.27;5.20;;;0.80;67.50;;;;;;5093408;28;20020;-76
2022/04/03 09:13:44;;;;;;;7.28;5.13;;;0.80;66.60;;;;;;5093209;28;20023;-76
2022/04/03 09:16:10;;;;;;;9.25;5.38;;;0.70;66.70;;;;;;5099563;28;20040;-75
2022/04/03 09:18:48;;;;;;;10.90;5.45;;;0.50;68.10;;;;;;5112407;28;20026;-75
2022/04/03 09:21:18;;;;;;;10.52;6.85;;;0.60;67.90;;;;;;5112176;28;20481;-76
2022/04/03 09:24:19;;;;;;;10.35;6.55;;;0.60;67.60;;;;;;5112148;28;20457;-75
2022/04/03 09:26:46;;;;;;;6.68;5.38;;;0.60;68.00;;;;;;5054204;28;20132;-76
2022/04/03 09:29:15;;;;;;;11.75;6.07;;;0.70;68.70;;;;;;5100862;28;20043;-76
2022/04/03 09:31:42;;;;;;;12.32;7.05;;;0.90;67.50;;;;;;5113561;28;20028;-75
2022/04/03 09:34:15;;;;;;;13.98;8.07;;;0.80;69.00;;;;;;5111566;28;20024;-75
2022/04/03 09:36:40;;;;;;;9.68;5.75;;;1.10;70.00;;;;;;5113392;28;20485;-75
2022/04/03 09:39:24;;;;;;;7.85;6.00;;;1.20;68.50;;;;;;5112143;28;20073;-75
2022/04/03 09:42:05;;;;;;;7.28;5.40;;;1.00;67.60;;;;;;5112121;28;20028;-75
2022/04/03 09:44:42;;;;;;;13.43;6.03;;;1.20;67.20;;;;;;5108762;28;20022;-75
2022/04/03 09:47:21;;;;;;;10.00;5.90;;;1.10;66.80;;;;;;5113773;28;20102;-76
2022/04/03 09:49:51;;;;;;;8.00;5.05;;;1.20;67.00;;;;;;5113402;28;20024;-75
2022/04/03 09:52:41;;;;;;;9.65;5.38;;;0.90;65.70;;;;;;5113099;28;20012;-76
2022/04/03 09:55:17;;;;;;;10.20;4.72;;;1.00;66.40;;;;;;5112136;28;20036;-75
2022/04/03 09:57:48;;;;;;;7.80;5.13;;;1.00;65.70;;;;;;5113384;28;20094;-74
2022/04/03 10:00:31;;;;;;;8.50;5.85;;;1.10;65.40;;;;;;5112056;28;20016;-75
2022/04/03 10:03:02;;;;;;;9.05;5.45;;;1.10;66.70;;;;;;5113005;28;20090;-76
2022/04/03 10:05:29;;;;;;;9.60;5.30;;;1.40;65.70;;;;;;5113064;28;20024;-76
2022/04/03 10:08:00;;;;;;;11.00;5.82;;;1.30;66.50;;;;;;5113409;28;20016;-75
2022/04/03 10:10:27;;;;;;;18.10;8.90;;;1.00;65.60;;;;;;5116051;28;20027;-75
2022/04/03 10:12:56;;;;;;;9.35;5.78;;;1.10;67.50;;;;;;5116932;28;20365;-76
2022/04/03 10:15:23;;;;;;;10.48;5.07;;;1.40;67.00;;;;;;5108288;27;20040;-76
2022/04/03 10:17:49;;;;;;;9.20;5.15;;;1.70;65.30;;;;;;5096880;28;20415;-76
2022/04/03 10:20:15;;;;;;;9.95;5.97;;;1.50;65.00;;;;;;5096253;28;20035;-77
2022/04/03 10:22:44;;;;;;;9.52;5.43;;;1.20;64.50;;;;;;5096710;28;20032;-77
2022/04/03 10:25:14;;;;;;;7.32;4.70;;;1.20;65.70;;;;;;5099270;28;20020;-75
2022/04/03 10:27:42;;;;;;;9.20;5.25;;;1.00;64.60;;;;;;5116547;28;20411;-75
2022/04/03 10:30:10;;;;;;;9.68;5.97;;;1.10;64.90;;;;;;5115695;28;20027;-75
2022/04/03 10:32:36;;;;;;;8.80;5.22;;;1.40;65.70;;;;;;5114683;28;20114;-77
2022/04/03 10:35:08;;;;;;;7.60;5.70;;;1.50;65.30;;;;;;5115512;28;20055;-76
2022/04/03 10:37:36;;;;;;;6.20;5.45;;;1.10;64.50;;;;;;5115531;28;20031;-76
2022/04/03 10:40:16;;;;;;;6.75;4.88;;;1.40;64.40;;;;;;5113677;28;20027;-75
2022/04/03 10:42:58;;;;;;;9.23;5.25;;;1.00;64.10;;;;;;5111713;28;20020;-75
2022/04/03 10:45:32;;;;;;;7.53;5.43;;;1.00;63.60;;;;;;5113216;28;20016;-77
2022/04/03 10:48:33;;;;;;;7.85;5.53;;;1.00;65.90;;;;;;5111729;28;20016;-76
2022/04/03 10:51:05;;;;;;;9.85;5.22;;;1.30;66.90;;;;;;5052626;28;20067;-75
2022/04/03 10:53:42;;;;;;;9.13;6.03;;;1.30;65.00;;;;;;5104804;28;20038;-77
2022/04/03 10:56:30;;;;;;;10.02;5.68;;;1.20;66.40;;;;;;5113863;28;20505;-75
2022/04/03 10:58:57;;;;;;;6.68;5.28;;;0.90;65.00;;;;;;5114792;28;20073;-75
2022/04/03 11:01:27;;;;;;;8.35;5.15;;;0.90;66.70;;;;;;5115225;28;20111;-75
2022/04/03 11:03:58;;;;;;;11.30;5.32;;;1.00;66.90;;;;;;5116419;28;20100;-75
2022/04/03 11:06:26;;;;;;;8.93;5.68;;;1.10;68.70;;;;;;5115158;28;20023;-74
2022/04/03 11:09:10;;;;;;;6.40;5.28;;;1.10;66.50;;;;;;5116299;28;20472;-74
2022/04/03 11:11:43;;;;;;;5.82;4.38;;;1.40;64.80;;;;;;5115022;28;20024;-75
2022/04/03 11:14:10;;;;;;;;;;;1.10;64.00;;;;;;5116694;28;20383;-75
2022/04/03 11:16:55;;;;;;;7.50;5.22;;;1.30;63.70;;;;;;5116073;28;19918;-76
2022/04/03 11:19:35;;;;;;;6.32;4.28;;;1.10;63.30;;;;;;5115886;28;20027;-75
2022/04/03 11:22:01;;;;;;;6.90;4.90;;;0.80;64.30;;;;;;5115678;28;20028;-75
2022/04/03 11:24:28;;;;;;;8.93;6.22;;;0.90;65.40;;;;;;5115842;28;20028;-75
2022/04/03 11:26:54;;;;;;;7.95;4.90;;;0.90;68.20;;;;;;5114632;28;20015;-75
2022/04/03 11:29:19;;;;;;;19.70;9.88;;;0.80;70.20;;;;;;5115957;28;20031;-75
2022/04/03 11:31:46;;;;;;;20.20;11.77;;;0.50;73.40;;;;;;5114900;28;20157;-75
2022/04/03 11:34:12;;;;;;;28.63;14.10;;;0.30;75.10;;;;;;5115731;28;20032;-74
2022/04/03 11:36:38;;;;;;;6.80;5.00;;;0.20;76.70;;;;;;5114559;28;20043;-75
2022/04/03 11:39:08;;;;;;;8.75;5.95;;;0.00;69.70;;;;;;5115747;28;20043;-75
2022/04/03 11:41:36;;;;;;;9.40;6.22;;;0.00;71.70;;;;;;5115832;27;20028;-75
2022/04/03 11:44:06;;;;;;;9.18;5.60;;;0.10;72.90;;;;;;5114325;28;20015;-75
2022/04/03 11:46:37;;;;;;;9.13;7.10;;;-0.10;76.00;;;;;;5114726;28;20026;-75
2022/04/03 11:49:16;;;;;;;11.27;7.55;;;-0.10;77.00;;;;;;5114275;28;20016;-75
2022/04/03 11:51:44;;;;;;;10.73;7.30;;;0.30;76.70;;;;;;5114513;28;20015;-75
2022/04/03 11:54:10;;;;;;;10.18;6.95;;;0.50;74.00;;;;;;5115257;28;20035;-75
2022/04/03 11:56:37;;;;;;;12.73;6.68;;;0.80;73.90;;;;;;5114229;28;20805;-75
2022/04/03 11:59:05;;;;;;;10.70;6.60;;;0.90;69.40;;;;;;5114120;28;20122;-75
2022/04/03 12:01:34;;;;;;;9.02;6.55;;;1.00;64.90;;;;;;5115301;28;20487;-75
2022/04/03 12:04:08;;;;;;;10.48;6.05;;;1.10;64.80;;;;;;5115300;28;20072;-75
2022/04/03 12:06:35;;;;;;;9.43;5.57;;;1.40;62.70;;;;;;5114034;28;20026;-76
2022/04/03 12:09:05;;;;;;;12.05;7.38;;;1.40;62.30;;;;;;5115187;28;20032;-75
2022/04/03 12:11:30;;;;;;;5.50;4.97;;;1.30;65.00;;;;;;5113820;28;20023;-75
2022/04/03 12:13:58;;;;;;;18.35;8.82;;;1.30;65.10;;;;;;5114969;28;20393;-75
2022/04/03 12:16:26;;;;;;;17.77;8.57;;;1.10;66.00;;;;;;5115036;28;20057;-75
2022/04/03 12:18:56;;;;;;;14.77;7.38;;;0.80;66.90;;;;;;5114956;28;20012;-75
2022/04/03 12:21:40;;;;;;;11.57;5.65;;;0.80;68.30;;;;;;5113653;28;20024;-75
2022/04/03 12:24:14;;;;;;;15.70;9.20;;;1.10;67.00;;;;;;5114957;28;20015;-74
2022/04/03 12:26:46;;;;;;;11.88;6.68;;;1.20;67.60;;;;;;5113604;28;20155;-75
2022/04/03 12:29:12;;;;;;;9.02;6.03;;;0.80;70.60;;;;;;5114861;28;20027;-75
2022/04/03 12:31:38;;;;;;;9.80;7.25;;;0.10;79.90;;;;;;5113900;28;20015;-75
2022/04/03 12:34:08;;;;;;;10.02;6.80;;;0.00;89.00;;;;;;5114256;28;20030;-74
2022/04/03 12:36:46;;;;;;;12.60;8.15;;;-0.10;95.20;;;;;;5114620;28;20043;-74
2022/04/03 12:39:29;;;;;;;14.45;7.70;;;-0.20;99.90;;;;;;5114714;27;20027;-75
2022/04/03 12:41:56;;;;;;;10.43;7.95;;;-0.40;99.90;;;;;;5114685;28;20393;-74
2022/04/03 12:44:22;;;;;;;16.70;9.30;;;-0.30;99.90;;;;;;5113182;28;20031;-75
2022/04/03 12:46:48;;;;;;;15.23;7.32;;;-0.50;99.90;;;;;;5113257;28;20610;-75